Ingeniero Luiggi, Argentina
Current Conditions -  °F | °C
As of 6:00 PM on Saturday 25 Oct 2014 (Local Time) from SAOC Reporting Station
Clear Clear  
Wind Chill: 33°   Ceiling: Unl
Heat Index: 33°   Visibility: 6mi
Dew Point: 13°   Wind: 22mph
Humidity: 29%   Direction: 360°N
Pressure: 29.74"   Gusts: NA
Location:  35.42°S, 64.48°W
Report Text: SAOC 252100Z 36019KT CAVOK 33/13 Q1007
Loading
Personal Weather Stations






























Interactive Weather Map
Tropical Storm Tracking
New forecast layout! Learn more

10-Day Weather Forecast

Advertisements
Track Severe Weather on mobile